Terminal Aerodrome Forecast
Issued by NWS Milwaukee/Sullivan, WI

Home | Current Version | Previous Version | Text Only | Print | Product List | Glossary On
Versions: 1 2 3 4 5 6 7 8 9 10 11 12 13 14 15 16 17 18 19 20 21 22 23 24 25 26 27 28 29 30 31 32 33 34 35 36 37 38 39 40 41 42 43 44 45 46 47 48 49 50
000
FTUS43 KMKX 241513 AAA
TAFMKE
TAF AMD
KMKE 241513Z 2415/2518 08013KT P6SM SCT020 OVC100
     FM242100 09011G18KT P6SM OVC015
     FM250000 11017G29KT 4SM -RA BR VCTS OVC008CB
     FM250400 12016G28KT 2SM -RA BR VCTS OVC005CB WS020/17045KT
     FM250600 14014G25KT 2SM -RA BR OVC003 WS020/18045KT
     FM250700 17014G26KT 4SM -RA BR OVC003 WS020/19045KT
     FM251000 24019G32KT P6SM BKN015
     FM251300 25019G35KT P6SM BKN050=

USA.gov is the U.S. government's official web portal to all federal, state and local government web resources and services.